Tropical Cyclones
[Index]
Main Index Home Page Stock Weather Photos Extreme Storms Discussion Storm News and Storm Chasing Reports Tropical Cyclones / Hurricanes / Typhoons Weather Data and Links Wild Fires / Bushfires Weather Observation Techniques Weather Picture Catalogue Tornado Pictures and Reports Stock Video Footage and DVDs for sale
Season 2012-2013 Tropical Cyclone GINO Track Map
Season 2012-2013 Summaries: [BoM-AU] [JTWC-AU] [JTWC-SIO] [JTWC-SPAC] [JTWC-SH]
<<- Previous TC | JTWC 2012-2013 Season | Next TC ->>

click for intensity scale information  Lat/long Grid: Show Hide

 Date Labels: Show Hide

Joint Typhoon Warning Centre Cyclone Data

Name: GINO

09 Feb 2013 12:00 UTC to 16 Feb 2013 06:00 UTC

    date/time    lat    long     hPa   cat  kts
2013-02-09 12    9.6    87.0    1007         20          
2013-02-09 18   10.1    87.0    1004         25          
2013-02-10 00   10.8    86.5    1004         25          
2013-02-10 06   11.3    85.6    1004         25          
2013-02-10 12   11.9    84.5    1004         25          
2013-02-10 18   12.0    83.4    1000         30          
2013-02-11 00   12.0    82.6    1000         30          
2013-02-11 06   12.4    81.9     996         35          
2013-02-11 12   13.2    81.3     993    1    40          
2013-02-11 18   14.1    80.9     989    1    45          
2013-02-12 00   14.8    80.3     982    2    55          
2013-02-12 00   14.8    80.3     982    2    55          
2013-02-12 06   15.7    80.2     974    2    65          
2013-02-12 06   15.7    80.2     974    2    65          
2013-02-12 06   15.7    80.2     974    2    65          
2013-02-12 12   16.6    79.7     970    2    70          
2013-02-12 12   16.6    79.7     970    2    70          
2013-02-12 12   16.6    79.7     970    2    70          
2013-02-12 18   17.5    79.6     967    3    75          
2013-02-12 18   17.5    79.6     967    3    75          
2013-02-12 18   17.5    79.6     967    3    75          
2013-02-13 00   18.4    79.6     959    3    85          
2013-02-13 00   18.4    79.6     959    3    85          
2013-02-13 00   18.4    79.6     959    3    85          
2013-02-13 06   19.1    79.6     959    3    85          
2013-02-13 06   19.1    79.6     959    3    85          
2013-02-13 06   19.1    79.6     959    3    85          
2013-02-13 12   20.0    79.8     959    3    85          
2013-02-13 12   20.0    79.8     959    3    85          
2013-02-13 12   20.0    79.8     959    3    85          
2013-02-13 18   21.1    80.0     956    3    90          
2013-02-13 18   21.1    80.0     956    3    90          
2013-02-13 18   21.1    80.0     956    3    90          
2013-02-14 00   22.0    80.4     956    3    90          
2013-02-14 00   22.0    80.4     956    3    90          
2013-02-14 00   22.0    80.4     956    3    90          
2013-02-14 06   23.0    80.9     956    3    90          
2013-02-14 06   23.0    80.9     956    3    90          
2013-02-14 06   23.0    80.9     956    3    90          
2013-02-14 12   24.1    81.3     967    3    75          
2013-02-14 12   24.1    81.3     967    3    75          
2013-02-14 12   24.1    81.3     967    3    75          
2013-02-14 18   25.0    82.1     978    2    60          
2013-02-14 18   25.0    82.1     978    2    60          
2013-02-15 00   25.8    83.4     982    2    55          
2013-02-15 06   26.5    85.0     989    1    45          
2013-02-15 12   26.6    86.5     993    1    40          
2013-02-15 18   26.5    87.4     993    1    40          
2013-02-16 00   26.5    88.1    1000         30          
2013-02-16 06   26.2    88.7    1004         25          
Winds are 1-min average.

Tropical cyclone tracks developed by Michael Bath using data from the Joint Typhoon Warning Centre Best Tracks and Google Maps.


[Australian Severe Weather index] [Copyright Notice] [Email Contacts] [Search This Site] [Privacy Policy]
Document: tropical_cyclone_gino.htm Updated: 28 June 2017